Beloit, Kansas
Current Conditions -  °F | °C
As of 5:55 PM on Sunday 23 Nov 2014 (Local Time) from KCNK Reporting Station
Clear Clear  
Wind Chill:   Ceiling: Unl
Heat Index:   Visibility: 10mi
Dew Point:   Wind: 8mph
Humidity: 79%   Direction: 320°NW
Pressure: 29.6"   Gusts: NA
Location:  39.46°N, 98.11°W
Report Text: KCNK 232355Z AUTO 32007KT 10SM CLR 05/02 A2960 RMK AO2 SLP024 60003 T00500017 10083 20044 53023
Loading
Personal Weather Stations






























Interactive Weather Map New forecast layout! Learn more

10-Day Weather Forecast

Advertisements
Track Severe Weather on mobile